Pagrindinis puslapis
METAR-TAF:

METAR-TAF

Oro uostai :

Kelnas, Vokietija

platuma: 50-52N, ilguma: 007-10E, Aukštis: 91 m

Dabartinis oras

Ataskaita buvo paskelbta 29 minutes, ne 22:20 UTC
Vėjas 5 kt iš Rytų/Pietryčių
Temperatūra -3°C
Drėgmė 86%
Slėgis 1027 hPa
Matomumas 10 km arba daugiau
nėra debesų žemiau 1500 m ir nėra kamuolinių lietaus debesų

METAR: EDDK 292220Z 12005KT CAVOK M03/M05 Q1027 NOSIG

Laikas: 23:49 (22:49 UTC)

Prognozė

Ataskaita buvo paskelbta 5 valandos ir 49 minutes, ne 17:00 UTC
Prognozė galioja nuo 29 metu 18 UTC su 30 metu 24 UTC
Vėjas 3 kt iš Rytų/Pietryčių
Matomumas 10 km arba daugiau
Mažai debesys ne aukštis 2000 ft
Tikimybė 30% :
Laikinai
nuo 30 metu 06 UTC su 30 metu 10 UTC
Matomumas: 4000 m
Su prošvaistėmis ne aukštis 800 ft
rūkana
Tapsmas
nuo 30 metu 09 UTC su 30 metu 12 UTC
Vėjas 6 kt iš Pietų
Laikinai
nuo 30 metu 18 UTC su 30 metu 24 UTC
Su prošvaistėmis ne aukštis 1200 ft
lietus

TAF: EDDK 291700Z 2918/3024 12003KT 9999 FEW020 PROB30 TEMPO 3006/3010 4000 BR BKN008 BECMG 3009/3012 18006KT TEMPO 3018/3024 RA BKN012

Orai ataskaitas ir orų prognozės (METAR, TAF).

turimą stotys yra geltonos ir raudonos taškus žemėlapyje.

Perkelti pele per norėdami pamatyti stoties vardą.

Tada spustelėkite, norėdami matyti oro stebėjimo ir prognozės.

Norėdami pakeisti žemėlapį: spustelėkite ant žalios mygtukų su juodo kryžiaus žemyn,; žalią mygtuką su brūkšneliu, jei norite nutolinti; arba žalių rodyklių gretimoms žemėlapius.


METAR-TAF: